sensor_id;sensor_type;location;lat;lon;timestamp;temperature;humidity
5605;DHT22;9297;47.258;11.362;2024-01-15T00:01:42;-0.70;89.10
5605;DHT22;9297;47.258;11.362;2024-01-15T00:04:11;-0.70;88.80
5605;DHT22;9297;47.258;11.362;2024-01-15T00:06:38;-0.90;90.40
5605;DHT22;9297;47.258;11.362;2024-01-15T00:09:05;-0.80;90.10
5605;DHT22;9297;47.258;11.362;2024-01-15T00:11:32;-0.80;90.40
5605;DHT22;9297;47.258;11.362;2024-01-15T00:13:59;-0.80;88.80
5605;DHT22;9297;47.258;11.362;2024-01-15T00:16:26;-0.80;88.90
5605;DHT22;9297;47.258;11.362;2024-01-15T00:18:53;-0.90;89.50
5605;DHT22;9297;47.258;11.362;2024-01-15T00:21:21;-0.90;89.30
5605;DHT22;9297;47.258;11.362;2024-01-15T00:23:48;-0.90;88.50
5605;DHT22;9297;47.258;11.362;2024-01-15T00:26:15;-0.90;88.70
5605;DHT22;9297;47.258;11.362;2024-01-15T00:28:42;-0.80;88.60
5605;DHT22;9297;47.258;11.362;2024-01-15T00:31:09;-0.80;88.90
5605;DHT22;9297;47.258;11.362;2024-01-15T00:33:37;-0.80;88.60
5605;DHT22;9297;47.258;11.362;2024-01-15T00:36:04;-0.90;88.60
5605;DHT22;9297;47.258;11.362;2024-01-15T00:38:33;-1.10;88.80
5605;DHT22;9297;47.258;11.362;2024-01-15T00:41:00;-1.00;89.30
5605;DHT22;9297;47.258;11.362;2024-01-15T00:43:27;-0.90;89.50
5605;DHT22;9297;47.258;11.362;2024-01-15T00:45:54;-0.90;89.00
5605;DHT22;9297;47.258;11.362;2024-01-15T00:48:21;-0.90;89.00
5605;DHT22;9297;47.258;11.362;2024-01-15T00:50:48;-1.10;89.40
5605;DHT22;9297;47.258;11.362;2024-01-15T00:53:15;-1.10;89.20
5605;DHT22;9297;47.258;11.362;2024-01-15T00:55:43;-1.10;89.20
5605;DHT22;9297;47.258;11.362;2024-01-15T00:58:10;-1.10;89.80
5605;DHT22;9297;47.258;11.362;2024-01-15T01:00:37;-1.10;90.00
5605;DHT22;9297;47.258;11.362;2024-01-15T01:03:04;-1.00;89.90
5605;DHT22;9297;47.258;11.362;2024-01-15T01:05:31;-1.10;89.80
5605;DHT22;9297;47.258;11.362;2024-01-15T01:07:58;-1.00;89.80
5605;DHT22;9297;47.258;11.362;2024-01-15T01:10:25;-1.00;89.60
5605;DHT22;9297;47.258;11.362;2024-01-15T01:12:54;-1.00;89.70
5605;DHT22;9297;47.258;11.362;2024-01-15T01:15:21;-1.00;89.90
5605;DHT22;9297;47.258;11.362;2024-01-15T01:17:47;-1.00;90.10
5605;DHT22;9297;47.258;11.362;2024-01-15T01:20:15;-0.90;90.60
5605;DHT22;9297;47.258;11.362;2024-01-15T01:22:45;-0.80;89.70
5605;DHT22;9297;47.258;11.362;2024-01-15T01:25:12;-0.80;89.60
5605;DHT22;9297;47.258;11.362;2024-01-15T01:27:39;-0.80;89.60
5605;DHT22;9297;47.258;11.362;2024-01-15T01:30:08;-0.80;89.90
5605;DHT22;9297;47.258;11.362;2024-01-15T01:32:35;-0.80;89.30
5605;DHT22;9297;47.258;11.362;2024-01-15T01:35:03;-0.70;89.00
5605;DHT22;9297;47.258;11.362;2024-01-15T01:37:30;-0.70;89.10
5605;DHT22;9297;47.258;11.362;2024-01-15T01:39:57;-0.70;89.50
5605;DHT22;9297;47.258;11.362;2024-01-15T01:42:24;-0.70;89.80
5605;DHT22;9297;47.258;11.362;2024-01-15T01:44:51;-0.60;90.50
5605;DHT22;9297;47.258;11.362;2024-01-15T01:47:19;-0.70;90.60
5605;DHT22;9297;47.258;11.362;2024-01-15T01:49:46;-0.60;90.80
5605;DHT22;9297;47.258;11.362;2024-01-15T01:52:14;-0.70;91.20
5605;DHT22;9297;47.258;11.362;2024-01-15T01:54:41;-0.80;92.10
5605;DHT22;9297;47.258;11.362;2024-01-15T01:57:09;-0.70;91.70
5605;DHT22;9297;47.258;11.362;2024-01-15T01:59:37;-0.90;91.40
5605;DHT22;9297;47.258;11.362;2024-01-15T02:02:06;-0.80;91.80
5605;DHT22;9297;47.258;11.362;2024-01-15T02:04:35;-0.90;91.40
5605;DHT22;9297;47.258;11.362;2024-01-15T02:07:02;-0.80;91.40
5605;DHT22;9297;47.258;11.362;2024-01-15T02:09:29;-0.90;92.00
5605;DHT22;9297;47.258;11.362;2024-01-15T02:11:56;-0.80;91.80
5605;DHT22;9297;47.258;11.362;2024-01-15T02:14:23;-0.90;90.80
5605;DHT22;9297;47.258;11.362;2024-01-15T02:16:50;-0.90;90.70
5605;DHT22;9297;47.258;11.362;2024-01-15T02:19:18;-0.90;92.90
5605;DHT22;9297;47.258;11.362;2024-01-15T02:21:46;-0.80;91.00
5605;DHT22;9297;47.258;11.362;2024-01-15T02:24:15;-0.90;91.30
5605;DHT22;9297;47.258;11.362;2024-01-15T02:26:42;-1.00;91.00
5605;DHT22;9297;47.258;11.362;2024-01-15T02:29:10;-1.00;92.20
5605;DHT22;9297;47.258;11.362;2024-01-15T02:31:38;-1.00;91.30
5605;DHT22;9297;47.258;11.362;2024-01-15T02:34:05;-1.10;92.00
5605;DHT22;9297;47.258;11.362;2024-01-15T02:36:32;-1.20;92.70
5605;DHT22;9297;47.258;11.362;2024-01-15T02:38:59;-1.20;92.90
5605;DHT22;9297;47.258;11.362;2024-01-15T02:41:28;-1.10;92.40
5605;DHT22;9297;47.258;11.362;2024-01-15T02:43:54;-1.10;92.10
5605;DHT22;9297;47.258;11.362;2024-01-15T02:46:21;-1.10;91.40
5605;DHT22;9297;47.258;11.362;2024-01-15T02:48:48;-1.10;92.90
5605;DHT22;9297;47.258;11.362;2024-01-15T02:51:15;-1.10;91.90
5605;DHT22;9297;47.258;11.362;2024-01-15T02:53:43;-1.10;91.50
5605;DHT22;9297;47.258;11.362;2024-01-15T02:56:09;-1.10;91.30
5605;DHT22;9297;47.258;11.362;2024-01-15T02:58:38;-1.10;91.70
5605;DHT22;9297;47.258;11.362;2024-01-15T03:01:05;-1.10;91.10
5605;DHT22;9297;47.258;11.362;2024-01-15T03:03:32;-1.10;91.00
5605;DHT22;9297;47.258;11.362;2024-01-15T03:05:59;-1.10;90.80
5605;DHT22;9297;47.258;11.362;2024-01-15T03:08:28;-1.00;90.60
5605;DHT22;9297;47.258;11.362;2024-01-15T03:10:55;-1.00;90.80
5605;DHT22;9297;47.258;11.362;2024-01-15T03:13:22;-1.10;90.80
5605;DHT22;9297;47.258;11.362;2024-01-15T03:15:50;-1.10;90.80
5605;DHT22;9297;47.258;11.362;2024-01-15T03:18:17;-1.10;90.80
5605;DHT22;9297;47.258;11.362;2024-01-15T03:20:44;-1.10;90.90
5605;DHT22;9297;47.258;11.362;2024-01-15T03:23:11;-1.20;91.40
5605;DHT22;9297;47.258;11.362;2024-01-15T03:25:38;-1.10;91.50
5605;DHT22;9297;47.258;11.362;2024-01-15T03:28:05;-1.20;91.90
5605;DHT22;9297;47.258;11.362;2024-01-15T03:30:32;-1.20;90.90
5605;DHT22;9297;47.258;11.362;2024-01-15T03:33:01;-1.20;91.60
5605;DHT22;9297;47.258;11.362;2024-01-15T03:35:28;-1.20;91.10
5605;DHT22;9297;47.258;11.362;2024-01-15T03:37:55;-1.20;90.80
5605;DHT22;9297;47.258;11.362;2024-01-15T03:40:22;-1.20;90.50
5605;DHT22;9297;47.258;11.362;2024-01-15T03:42:49;-1.30;91.50
5605;DHT22;9297;47.258;11.362;2024-01-15T03:45:16;-1.30;90.80
5605;DHT22;9297;47.258;11.362;2024-01-15T03:47:43;-1.30;90.40
5605;DHT22;9297;47.258;11.362;2024-01-15T03:50:12;-1.30;90.60
5605;DHT22;9297;47.258;11.362;2024-01-15T03:52:39;-1.20;90.80
5605;DHT22;9297;47.258;11.362;2024-01-15T03:55:06;-1.20;91.40
5605;DHT22;9297;47.258;11.362;2024-01-15T03:57:33;-1.30;90.80
5605;DHT22;9297;47.258;11.362;2024-01-15T04:00:00;-1.30;90.50
5605;DHT22;9297;47.258;11.362;2024-01-15T04:02:27;-1.30;90.30
5605;DHT22;9297;47.258;11.362;2024-01-15T04:04:54;-1.30;90.30
5605;DHT22;9297;47.258;11.362;2024-01-15T04:07:23;-1.40;90.70
5605;DHT22;9297;47.258;11.362;2024-01-15T04:09:50;-1.40;91.10
5605;DHT22;9297;47.258;11.362;2024-01-15T04:12:17;-1.40;90.30
5605;DHT22;9297;47.258;11.362;2024-01-15T04:14:43;-1.40;91.40
5605;DHT22;9297;47.258;11.362;2024-01-15T04:17:10;-1.40;90.40
5605;DHT22;9297;47.258;11.362;2024-01-15T04:19:38;-1.40;90.70
5605;DHT22;9297;47.258;11.362;2024-01-15T04:22:05;-1.40;90.80
5605;DHT22;9297;47.258;11.362;2024-01-15T04:24:33;-1.50;90.90
5605;DHT22;9297;47.258;11.362;2024-01-15T04:27:00;-1.50;89.70
5605;DHT22;9297;47.258;11.362;2024-01-15T04:29:27;-1.50;90.20
5605;DHT22;9297;47.258;11.362;2024-01-15T04:31:54;-1.50;90.20
5605;DHT22;9297;47.258;11.362;2024-01-15T04:34:21;-1.60;89.60
5605;DHT22;9297;47.258;11.362;2024-01-15T04:36:48;-1.70;89.20
5605;DHT22;9297;47.258;11.362;2024-01-15T04:39:15;-1.90;91.00
5605;DHT22;9297;47.258;11.362;2024-01-15T04:41:43;-1.80;91.00
5605;DHT22;9297;47.258;11.362;2024-01-15T04:44:10;-1.90;90.40
5605;DHT22;9297;47.258;11.362;2024-01-15T04:46:37;-1.80;91.40
5605;DHT22;9297;47.258;11.362;2024-01-15T04:49:04;-1.80;91.00
5605;DHT22;9297;47.258;11.362;2024-01-15T04:51:31;-1.90;90.50
5605;DHT22;9297;47.258;11.362;2024-01-15T04:53:58;-2.00;91.50
5605;DHT22;9297;47.258;11.362;2024-01-15T04:56:25;-1.90;91.30
5605;DHT22;9297;47.258;11.362;2024-01-15T04:58:54;-1.90;91.00
5605;DHT22;9297;47.258;11.362;2024-01-15T05:01:21;-1.80;91.10
5605;DHT22;9297;47.258;11.362;2024-01-15T05:03:48;-1.80;90.80
5605;DHT22;9297;47.258;11.362;2024-01-15T05:06:15;-1.80;90.50
5605;DHT22;9297;47.258;11.362;2024-01-15T05:08:42;-1.70;90.60
5605;DHT22;9297;47.258;11.362;2024-01-15T05:11:09;-1.70;91.70
5605;DHT22;9297;47.258;11.362;2024-01-15T05:13:36;-1.80;91.40
5605;DHT22;9297;47.258;11.362;2024-01-15T05:16:05;-2.00;90.50
5605;DHT22;9297;47.258;11.362;2024-01-15T05:18:32;-2.00;90.20
5605;DHT22;9297;47.258;11.362;2024-01-15T05:20:59;-2.20;89.80
5605;DHT22;9297;47.258;11.362;2024-01-15T05:23:26;-2.10;89.80
5605;DHT22;9297;47.258;11.362;2024-01-15T05:25:53;-2.10;89.60
5605;DHT22;9297;47.258;11.362;2024-01-15T05:28:20;-2.10;90.60
5605;DHT22;9297;47.258;11.362;2024-01-15T05:30:47;-2.10;89.90
5605;DHT22;9297;47.258;11.362;2024-01-15T05:33:15;-2.00;90.10
5605;DHT22;9297;47.258;11.362;2024-01-15T05:35:43;-2.00;89.70
5605;DHT22;9297;47.258;11.362;2024-01-15T05:38:09;-1.90;90.10
5605;DHT22;9297;47.258;11.362;2024-01-15T05:40:36;-1.80;90.10
5605;DHT22;9297;47.258;11.362;2024-01-15T05:43:03;-1.90;89.40
5605;DHT22;9297;47.258;11.362;2024-01-15T05:45:30;-2.00;87.60
5605;DHT22;9297;47.258;11.362;2024-01-15T05:47:58;-2.10;87.40
5605;DHT22;9297;47.258;11.362;2024-01-15T05:50:26;-2.20;88.60
5605;DHT22;9297;47.258;11.362;2024-01-15T05:52:53;-2.10;89.90
5605;DHT22;9297;47.258;11.362;2024-01-15T05:55:20;-1.90;90.40
5605;DHT22;9297;47.258;11.362;2024-01-15T05:57:47;3.10;99.90
5605;DHT22;9297;47.258;11.362;2024-01-15T06:00:15;0.60;99.90
5605;DHT22;9297;47.258;11.362;2024-01-15T06:02:44;1.70;99.90
5605;DHT22;9297;47.258;11.362;2024-01-15T06:05:11;2.60;99.90
5605;DHT22;9297;47.258;11.362;2024-01-15T06:07:39;1.00;82.70
5605;DHT22;9297;47.258;11.362;2024-01-15T06:10:07;0.20;80.70
5605;DHT22;9297;47.258;11.362;2024-01-15T06:12:34;-0.20;83.40
5605;DHT22;9297;47.258;11.362;2024-01-15T06:15:02;-0.50;83.60
5605;DHT22;9297;47.258;11.362;2024-01-15T06:17:29;-0.70;87.40
5605;DHT22;9297;47.258;11.362;2024-01-15T06:19:56;-0.80;86.80
5605;DHT22;9297;47.258;11.362;2024-01-15T06:22:23;-0.90;87.80
5605;DHT22;9297;47.258;11.362;2024-01-15T06:24:51;-0.90;88.50
5605;DHT22;9297;47.258;11.362;2024-01-15T06:27:18;-1.00;89.00
5605;DHT22;9297;47.258;11.362;2024-01-15T06:29:46;-0.90;88.80
5605;DHT22;9297;47.258;11.362;2024-01-15T06:32:16;-1.00;88.90
5605;DHT22;9297;47.258;11.362;2024-01-15T06:34:43;-1.00;89.10
5605;DHT22;9297;47.258;11.362;2024-01-15T06:37:10;-0.90;89.60
5605;DHT22;9297;47.258;11.362;2024-01-15T06:39:37;-0.80;90.50
5605;DHT22;9297;47.258;11.362;2024-01-15T06:42:06;-0.90;99.90
5605;DHT22;9297;47.258;11.362;2024-01-15T06:44:33;-0.30;99.90
5605;DHT22;9297;47.258;11.362;2024-01-15T06:47:00;-0.30;99.90
5605;DHT22;9297;47.258;11.362;2024-01-15T06:49:27;-0.70;96.10
5605;DHT22;9297;47.258;11.362;2024-01-15T06:51:54;-0.70;97.10
5605;DHT22;9297;47.258;11.362;2024-01-15T06:54:21;-0.70;95.70
5605;DHT22;9297;47.258;11.362;2024-01-15T06:56:48;-0.80;92.50
5605;DHT22;9297;47.258;11.362;2024-01-15T06:59:17;-0.90;93.50
5605;DHT22;9297;47.258;11.362;2024-01-15T07:01:46;-1.00;95.10
5605;DHT22;9297;47.258;11.362;2024-01-15T07:04:13;-1.00;94.80
5605;DHT22;9297;47.258;11.362;2024-01-15T07:06:40;-1.00;94.50
5605;DHT22;9297;47.258;11.362;2024-01-15T07:09:07;-0.90;94.40
5605;DHT22;9297;47.258;11.362;2024-01-15T07:11:34;-0.90;95.20
5605;DHT22;9297;47.258;11.362;2024-01-15T07:14:01;-0.80;93.20
5605;DHT22;9297;47.258;11.362;2024-01-15T07:16:30;-0.80;93.90
5605;DHT22;9297;47.258;11.362;2024-01-15T07:19:04;-0.80;93.10
5605;DHT22;9297;47.258;11.362;2024-01-15T07:21:31;-0.70;93.40
5605;DHT22;9297;47.258;11.362;2024-01-15T07:23:58;-0.60;93.20
5605;DHT22;9297;47.258;11.362;2024-01-15T07:26:25;-0.70;94.30
5605;DHT22;9297;47.258;11.362;2024-01-15T07:28:52;-0.70;94.00
5605;DHT22;9297;47.258;11.362;2024-01-15T07:31:19;-0.60;93.70
5605;DHT22;9297;47.258;11.362;2024-01-15T07:33:48;-0.60;93.60
5605;DHT22;9297;47.258;11.362;2024-01-15T07:36:15;-0.50;92.50
5605;DHT22;9297;47.258;11.362;2024-01-15T07:38:42;-0.40;91.90
5605;DHT22;9297;47.258;11.362;2024-01-15T07:41:09;-0.60;93.40
5605;DHT22;9297;47.258;11.362;2024-01-15T07:43:36;-0.40;92.80
5605;DHT22;9297;47.258;11.362;2024-01-15T07:46:03;-0.40;91.50
5605;DHT22;9297;47.258;11.362;2024-01-15T07:48:30;-0.40;91.80
5605;DHT22;9297;47.258;11.362;2024-01-15T07:50:59;-0.40;92.00
5605;DHT22;9297;47.258;11.362;2024-01-15T07:53:26;-0.30;91.80
5605;DHT22;9297;47.258;11.362;2024-01-15T07:55:53;-0.20;92.00
5605;DHT22;9297;47.258;11.362;2024-01-15T07:58:19;0.00;92.20
5605;DHT22;9297;47.258;11.362;2024-01-15T08:00:47;0.00;89.20
5605;DHT22;9297;47.258;11.362;2024-01-15T08:03:14;0.00;89.00
5605;DHT22;9297;47.258;11.362;2024-01-15T08:05:41;0.00;88.90
5605;DHT22;9297;47.258;11.362;2024-01-15T08:08:09;0.00;89.70
5605;DHT22;9297;47.258;11.362;2024-01-15T08:10:36;0.10;90.00
5605;DHT22;9297;47.258;11.362;2024-01-15T08:13:03;0.10;90.50
5605;DHT22;9297;47.258;11.362;2024-01-15T08:15:30;0.20;90.80
5605;DHT22;9297;47.258;11.362;2024-01-15T08:17:58;0.30;90.50
5605;DHT22;9297;47.258;11.362;2024-01-15T08:20:25;0.40;90.40
5605;DHT22;9297;47.258;11.362;2024-01-15T08:22:52;0.40;89.20
5605;DHT22;9297;47.258;11.362;2024-01-15T08:25:20;0.50;90.30
5605;DHT22;9297;47.258;11.362;2024-01-15T08:27:47;0.50;89.40
5605;DHT22;9297;47.258;11.362;2024-01-15T08:30:15;0.60;88.80
5605;DHT22;9297;47.258;11.362;2024-01-15T08:32:42;0.60;88.70
5605;DHT22;9297;47.258;11.362;2024-01-15T08:35:10;0.70;89.80
5605;DHT22;9297;47.258;11.362;2024-01-15T08:37:37;0.90;88.60
5605;DHT22;9297;47.258;11.362;2024-01-15T08:40:05;1.00;88.20
5605;DHT22;9297;47.258;11.362;2024-01-15T08:42:33;1.10;87.70
5605;DHT22;9297;47.258;11.362;2024-01-15T08:45:00;1.00;87.60
5605;DHT22;9297;47.258;11.362;2024-01-15T08:47:27;1.10;87.30
5605;DHT22;9297;47.258;11.362;2024-01-15T08:49:54;1.10;87.00
5605;DHT22;9297;47.258;11.362;2024-01-15T08:52:21;1.10;86.90
5605;DHT22;9297;47.258;11.362;2024-01-15T08:54:48;1.20;86.30
5605;DHT22;9297;47.258;11.362;2024-01-15T08:57:15;1.30;85.60
5605;DHT22;9297;47.258;11.362;2024-01-15T08:59:44;1.30;85.60
5605;DHT22;9297;47.258;11.362;2024-01-15T09:02:11;1.30;85.50
5605;DHT22;9297;47.258;11.362;2024-01-15T09:04:37;1.30;86.30
5605;DHT22;9297;47.258;11.362;2024-01-15T09:07:05;1.40;85.10
5605;DHT22;9297;47.258;11.362;2024-01-15T09:09:31;1.40;84.70
5605;DHT22;9297;47.258;11.362;2024-01-15T09:11:58;1.50;84.20
5605;DHT22;9297;47.258;11.362;2024-01-15T09:14:25;1.50;84.50
5605;DHT22;9297;47.258;11.362;2024-01-15T09:17:04;1.60;83.60
5605;DHT22;9297;47.258;11.362;2024-01-15T09:19:31;1.60;83.60
5605;DHT22;9297;47.258;11.362;2024-01-15T09:21:59;1.60;85.40
5605;DHT22;9297;47.258;11.362;2024-01-15T09:24:26;1.80;85.20
5605;DHT22;9297;47.258;11.362;2024-01-15T09:26:55;1.80;84.50
5605;DHT22;9297;47.258;11.362;2024-01-15T09:29:22;1.80;83.70
5605;DHT22;9297;47.258;11.362;2024-01-15T09:31:49;1.80;84.20
5605;DHT22;9297;47.258;11.362;2024-01-15T09:34:18;2.10;83.10
5605;DHT22;9297;47.258;11.362;2024-01-15T09:36:45;2.20;81.40
5605;DHT22;9297;47.258;11.362;2024-01-15T09:39:12;2.30;81.30
5605;DHT22;9297;47.258;11.362;2024-01-15T09:41:39;2.30;81.90
5605;DHT22;9297;47.258;11.362;2024-01-15T09:44:07;2.30;79.80
5605;DHT22;9297;47.258;11.362;2024-01-15T09:46:35;2.40;78.20
5605;DHT22;9297;47.258;11.362;2024-01-15T09:49:02;2.50;78.50
5605;DHT22;9297;47.258;11.362;2024-01-15T09:51:32;2.30;78.70
5605;DHT22;9297;47.258;11.362;2024-01-15T09:53:59;2.30;79.30
5605;DHT22;9297;47.258;11.362;2024-01-15T09:56:26;2.40;79.70
5605;DHT22;9297;47.258;11.362;2024-01-15T09:58:53;2.20;77.10
5605;DHT22;9297;47.258;11.362;2024-01-15T10:01:20;2.10;76.70
5605;DHT22;9297;47.258;11.362;2024-01-15T10:03:47;2.20;77.00
5605;DHT22;9297;47.258;11.362;2024-01-15T10:06:16;2.40;78.30
5605;DHT22;9297;47.258;11.362;2024-01-15T10:08:49;2.30;77.30
5605;DHT22;9297;47.258;11.362;2024-01-15T10:11:16;2.40;77.10
5605;DHT22;9297;47.258;11.362;2024-01-15T10:13:44;2.40;77.60
5605;DHT22;9297;47.258;11.362;2024-01-15T10:16:12;2.40;76.50
5605;DHT22;9297;47.258;11.362;2024-01-15T10:18:39;2.40;76.10
5605;DHT22;9297;47.258;11.362;2024-01-15T10:21:07;2.50;77.20
5605;DHT22;9297;47.258;11.362;2024-01-15T10:23:34;2.40;75.80
5605;DHT22;9297;47.258;11.362;2024-01-15T10:26:03;2.60;75.90
5605;DHT22;9297;47.258;11.362;2024-01-15T10:28:31;2.60;75.40
5605;DHT22;9297;47.258;11.362;2024-01-15T10:30:59;2.70;75.10
5605;DHT22;9297;47.258;11.362;2024-01-15T10:33:26;2.40;75.30
5605;DHT22;9297;47.258;11.362;2024-01-15T10:35:54;2.70;76.90
5605;DHT22;9297;47.258;11.362;2024-01-15T10:38:22;2.80;75.10
5605;DHT22;9297;47.258;11.362;2024-01-15T10:40:51;2.70;73.40
5605;DHT22;9297;47.258;11.362;2024-01-15T10:43:19;3.00;73.30
5605;DHT22;9297;47.258;11.362;2024-01-15T10:45:47;3.10;72.90
5605;DHT22;9297;47.258;11.362;2024-01-15T10:48:16;3.20;72.40
5605;DHT22;9297;47.258;11.362;2024-01-15T10:50:43;3.10;73.40
5605;DHT22;9297;47.258;11.362;2024-01-15T10:53:11;3.30;72.60
5605;DHT22;9297;47.258;11.362;2024-01-15T10:55:39;3.30;71.30
5605;DHT22;9297;47.258;11.362;2024-01-15T10:58:07;3.60;70.90
5605;DHT22;9297;47.258;11.362;2024-01-15T11:00:36;3.80;70.20
5605;DHT22;9297;47.258;11.362;2024-01-15T11:03:04;3.90;69.50
5605;DHT22;9297;47.258;11.362;2024-01-15T11:05:33;4.10;68.60
5605;DHT22;9297;47.258;11.362;2024-01-15T11:08:01;4.30;68.00
5605;DHT22;9297;47.258;11.362;2024-01-15T11:10:42;4.20;66.50
5605;DHT22;9297;47.258;11.362;2024-01-15T11:13:10;4.40;67.00
5605;DHT22;9297;47.258;11.362;2024-01-15T11:15:58;4.40;66.30
5605;DHT22;9297;47.258;11.362;2024-01-15T11:18:27;4.40;66.30
5605;DHT22;9297;47.258;11.362;2024-01-15T11:21:19;4.60;65.90
5605;DHT22;9297;47.258;11.362;2024-01-15T11:23:47;4.70;65.90
5605;DHT22;9297;47.258;11.362;2024-01-15T11:26:34;4.70;64.30
5605;DHT22;9297;47.258;11.362;2024-01-15T11:29:03;4.40;65.50
5605;DHT22;9297;47.258;11.362;2024-01-15T11:31:58;4.20;65.50
5605;DHT22;9297;47.258;11.362;2024-01-15T11:34:57;3.70;66.30
5605;DHT22;9297;47.258;11.362;2024-01-15T11:37:25;3.70;67.00
5605;DHT22;9297;47.258;11.362;2024-01-15T11:39:53;3.90;67.50
5605;DHT22;9297;47.258;11.362;2024-01-15T11:42:22;3.90;67.40
5605;DHT22;9297;47.258;11.362;2024-01-15T11:44:49;4.20;66.50
5605;DHT22;9297;47.258;11.362;2024-01-15T11:47:50;4.30;65.70
5605;DHT22;9297;47.258;11.362;2024-01-15T11:50:21;4.60;66.30
5605;DHT22;9297;47.258;11.362;2024-01-15T11:52:55;5.00;66.00
5605;DHT22;9297;47.258;11.362;2024-01-15T11:55:27;5.20;63.70
5605;DHT22;9297;47.258;11.362;2024-01-15T11:57:54;5.10;63.00
5605;DHT22;9297;47.258;11.362;2024-01-15T12:00:22;5.30;62.50
5605;DHT22;9297;47.258;11.362;2024-01-15T12:02:52;5.20;61.90
5605;DHT22;9297;47.258;11.362;2024-01-15T12:05:20;5.00;62.70
5605;DHT22;9297;47.258;11.362;2024-01-15T12:07:48;4.80;62.70
5605;DHT22;9297;47.258;11.362;2024-01-15T12:10:16;4.80;63.30
5605;DHT22;9297;47.258;11.362;2024-01-15T12:12:54;4.70;63.50
5605;DHT22;9297;47.258;11.362;2024-01-15T12:15:24;4.70;64.20
5605;DHT22;9297;47.258;11.362;2024-01-15T12:17:54;4.50;64.90
5605;DHT22;9297;47.258;11.362;2024-01-15T12:20:21;4.50;64.20
5605;DHT22;9297;47.258;11.362;2024-01-15T12:22:49;4.60;64.10
5605;DHT22;9297;47.258;11.362;2024-01-15T12:25:27;4.40;64.40
5605;DHT22;9297;47.258;11.362;2024-01-15T12:27:56;4.50;64.10
5605;DHT22;9297;47.258;11.362;2024-01-15T12:30:23;4.80;63.90
5605;DHT22;9297;47.258;11.362;2024-01-15T12:32:50;5.00;63.50
5605;DHT22;9297;47.258;11.362;2024-01-15T12:35:19;4.70;62.40
5605;DHT22;9297;47.258;11.362;2024-01-15T12:37:47;4.90;62.60
5605;DHT22;9297;47.258;11.362;2024-01-15T12:40:19;4.60;62.00
5605;DHT22;9297;47.258;11.362;2024-01-15T12:42:46;4.70;63.90
5605;DHT22;9297;47.258;11.362;2024-01-15T12:45:13;4.70;62.90
5605;DHT22;9297;47.258;11.362;2024-01-15T12:47:41;5.10;64.20
5605;DHT22;9297;47.258;11.362;2024-01-15T12:50:09;5.10;63.40
5605;DHT22;9297;47.258;11.362;2024-01-15T12:52:46;5.40;62.90
5605;DHT22;9297;47.258;11.362;2024-01-15T12:55:14;5.20;61.70
5605;DHT22;9297;47.258;11.362;2024-01-15T12:57:42;5.20;62.30
5605;DHT22;9297;47.258;11.362;2024-01-15T13:00:10;5.20;62.00
5605;DHT22;9297;47.258;11.362;2024-01-15T13:02:37;5.10;62.20
5605;DHT22;9297;47.258;11.362;2024-01-15T13:05:05;5.10;63.00
5605;DHT22;9297;47.258;11.362;2024-01-15T13:07:32;4.80;62.30
5605;DHT22;9297;47.258;11.362;2024-01-15T13:10:01;4.70;63.30
5605;DHT22;9297;47.258;11.362;2024-01-15T13:12:28;4.70;63.80
5605;DHT22;9297;47.258;11.362;2024-01-15T13:14:55;4.70;63.40
5605;DHT22;9297;47.258;11.362;2024-01-15T13:17:22;4.70;64.30
5605;DHT22;9297;47.258;11.362;2024-01-15T13:19:48;4.60;64.20
5605;DHT22;9297;47.258;11.362;2024-01-15T13:22:16;4.60;63.80
5605;DHT22;9297;47.258;11.362;2024-01-15T13:24:43;4.70;64.20
5605;DHT22;9297;47.258;11.362;2024-01-15T13:27:11;4.70;64.90
5605;DHT22;9297;47.258;11.362;2024-01-15T13:29:38;4.60;64.00
5605;DHT22;9297;47.258;11.362;2024-01-15T13:32:05;4.40;63.20
5605;DHT22;9297;47.258;11.362;2024-01-15T13:34:32;4.40;64.10
5605;DHT22;9297;47.258;11.362;2024-01-15T13:36:59;4.40;64.20
5605;DHT22;9297;47.258;11.362;2024-01-15T13:39:26;4.20;63.80
5605;DHT22;9297;47.258;11.362;2024-01-15T13:41:53;4.20;64.60
5605;DHT22;9297;47.258;11.362;2024-01-15T13:44:21;4.10;64.60
5605;DHT22;9297;47.258;11.362;2024-01-15T13:46:50;4.10;65.30
5605;DHT22;9297;47.258;11.362;2024-01-15T13:49:17;4.00;65.50
5605;DHT22;9297;47.258;11.362;2024-01-15T13:51:44;4.00;66.20
5605;DHT22;9297;47.258;11.362;2024-01-15T13:54:11;4.00;65.40
5605;DHT22;9297;47.258;11.362;2024-01-15T13:56:38;4.00;65.40
5605;DHT22;9297;47.258;11.362;2024-01-15T13:59:05;4.00;65.40
5605;DHT22;9297;47.258;11.362;2024-01-15T14:01:33;4.00;65.40
5605;DHT22;9297;47.258;11.362;2024-01-15T14:04:00;4.00;65.40
5605;DHT22;9297;47.258;11.362;2024-01-15T14:06:27;4.00;63.80
5605;DHT22;9297;47.258;11.362;2024-01-15T14:08:54;3.80;65.60
5605;DHT22;9297;47.258;11.362;2024-01-15T14:11:21;3.90;68.80
5605;DHT22;9297;47.258;11.362;2024-01-15T14:13:48;4.00;67.40
5605;DHT22;9297;47.258;11.362;2024-01-15T14:16:16;4.00;65.80
5605;DHT22;9297;47.258;11.362;2024-01-15T14:18:53;3.90;65.30
5605;DHT22;9297;47.258;11.362;2024-01-15T14:21:20;3.80;64.60
5605;DHT22;9297;47.258;11.362;2024-01-15T14:23:47;4.00;65.90
5605;DHT22;9297;47.258;11.362;2024-01-15T14:26:14;3.90;65.40
5605;DHT22;9297;47.258;11.362;2024-01-15T14:28:43;3.90;63.20
5605;DHT22;9297;47.258;11.362;2024-01-15T14:31:10;3.90;64.50
5605;DHT22;9297;47.258;11.362;2024-01-15T14:33:37;3.90;65.40
5605;DHT22;9297;47.258;11.362;2024-01-15T14:36:08;3.90;66.00
5605;DHT22;9297;47.258;11.362;2024-01-15T14:38:35;3.80;66.20
5605;DHT22;9297;47.258;11.362;2024-01-15T14:41:02;3.80;67.00
5605;DHT22;9297;47.258;11.362;2024-01-15T14:43:28;3.70;65.70
5605;DHT22;9297;47.258;11.362;2024-01-15T14:45:55;3.70;65.60
5605;DHT22;9297;47.258;11.362;2024-01-15T14:48:22;3.80;66.10
5605;DHT22;9297;47.258;11.362;2024-01-15T14:50:49;3.70;67.10
5605;DHT22;9297;47.258;11.362;2024-01-15T14:53:18;3.70;68.00
5605;DHT22;9297;47.258;11.362;2024-01-15T14:55:45;3.70;68.70
5605;DHT22;9297;47.258;11.362;2024-01-15T14:58:12;3.70;69.60
5605;DHT22;9297;47.258;11.362;2024-01-15T15:00:38;3.70;68.80
5605;DHT22;9297;47.258;11.362;2024-01-15T15:03:06;3.50;68.00
5605;DHT22;9297;47.258;11.362;2024-01-15T15:05:32;3.50;67.70
5605;DHT22;9297;47.258;11.362;2024-01-15T15:07:59;3.40;67.40
5605;DHT22;9297;47.258;11.362;2024-01-15T15:10:28;3.40;68.50
5605;DHT22;9297;47.258;11.362;2024-01-15T15:12:55;3.40;68.70
5605;DHT22;9297;47.258;11.362;2024-01-15T15:15:22;3.40;69.10
5605;DHT22;9297;47.258;11.362;2024-01-15T15:17:51;3.30;69.00
5605;DHT22;9297;47.258;11.362;2024-01-15T15:20:18;3.30;69.80
5605;DHT22;9297;47.258;11.362;2024-01-15T15:22:45;3.30;71.30
5605;DHT22;9297;47.258;11.362;2024-01-15T15:25:12;3.20;70.40
5605;DHT22;9297;47.258;11.362;2024-01-15T15:27:40;3.20;71.10
5605;DHT22;9297;47.258;11.362;2024-01-15T15:30:08;3.00;72.10
5605;DHT22;9297;47.258;11.362;2024-01-15T15:32:35;3.00;72.90
5605;DHT22;9297;47.258;11.362;2024-01-15T15:35:02;3.00;73.70
5605;DHT22;9297;47.258;11.362;2024-01-15T15:37:30;3.00;74.20
5605;DHT22;9297;47.258;11.362;2024-01-15T15:39:57;3.00;75.00
5605;DHT22;9297;47.258;11.362;2024-01-15T15:42:24;3.00;74.40
5605;DHT22;9297;47.258;11.362;2024-01-15T15:44:52;3.10;74.50
5605;DHT22;9297;47.258;11.362;2024-01-15T15:47:23;3.00;74.50
5605;DHT22;9297;47.258;11.362;2024-01-15T15:49:50;3.10;74.80
5605;DHT22;9297;47.258;11.362;2024-01-15T15:52:17;3.00;74.80
5605;DHT22;9297;47.258;11.362;2024-01-15T15:54:44;3.00;75.10
5605;DHT22;9297;47.258;11.362;2024-01-15T15:57:11;3.00;75.60
5605;DHT22;9297;47.258;11.362;2024-01-15T15:59:38;2.90;77.30